Time;durP1;ratioP1;P1;durP2;ratioP2;P2;SDS_P1;SDS_P2;PMS_P1;PMS_P2;Temp;Humidity;BMP_temperature;BMP_pressure;BME280_temperature;BME280_humidity;BME280_pressure;Samples;Min_cycle;Max_cycle;Signal;HPM_P1;HPM_P2
2022/07/15 00:00:11;;;;;;;5.82;1.42;;;;;;;16.99;65.14;101932.31;5043814;28;20088;-76
2022/07/15 00:02:37;;;;;;;3.83;1.35;;;;;;;17.01;65.08;101934.72;5027968;28;20040;-75
2022/07/15 00:05:05;;;;;;;2.63;1.27;;;;;;;17.03;64.96;101927.53;5039330;28;20841;-75
2022/07/15 00:07:31;;;;;;;5.18;1.23;;;;;;;16.99;65.15;101932.31;5021409;28;20051;-74
2022/07/15 00:10:15;;;;;;;4.35;1.30;;;;;;;16.95;65.50;101925.75;5039054;28;20067;-74
2022/07/15 00:13:00;;;;;;;5.22;1.25;;;;;;;16.85;65.97;101925.97;5034648;28;20036;-74
2022/07/15 00:15:29;;;;;;;6.53;1.25;;;;;;;16.81;66.24;101929.88;5040163;28;20032;-75
2022/07/15 00:17:57;;;;;;;4.70;1.20;;;;;;;16.79;66.14;101931.06;5022568;28;20037;-73
2022/07/15 00:20:22;;;;;;;6.80;1.05;;;;;;;16.77;66.17;101933.84;5056332;28;20055;-74
2022/07/15 00:22:48;;;;;;;4.72;1.40;;;;;;;16.77;66.15;101922.53;5039581;28;20544;-74
2022/07/15 00:25:15;;;;;;;5.18;1.40;;;;;;;16.74;66.30;101932.38;5053758;28;21978;-74
2022/07/15 00:27:56;;;;;;;7.05;2.13;;;;;;;16.64;66.99;101925.69;5038194;28;20040;-73
2022/07/15 00:30:23;;;;;;;4.80;1.38;;;;;;;16.51;67.66;101920.97;5053421;28;20033;-72
2022/07/15 00:32:49;;;;;;;4.35;1.20;;;;;;;16.39;68.47;101925.75;5041229;28;20033;-75
2022/07/15 00:35:15;;;;;;;4.50;1.15;;;;;;;16.31;69.13;101923.16;5058637;28;20031;-75
2022/07/15 00:37:40;;;;;;;2.67;1.20;;;;;;;16.24;69.53;101919.59;5027614;28;20822;-75
2022/07/15 00:40:07;;;;;;;5.15;1.30;;;;;;;16.22;69.88;101927.59;5061408;28;20036;-75
2022/07/15 00:42:44;;;;;;;5.20;1.25;;;;;;;16.19;69.73;101920.06;5064111;28;20040;-75
2022/07/15 00:45:16;;;;;;;4.25;1.50;;;;;;;16.22;69.81;101926.75;5063311;28;20040;-75
2022/07/15 00:47:47;;;;;;;6.35;1.48;;;;;;;16.17;70.10;101929.06;5042278;28;20508;-75
2022/07/15 00:50:15;;;;;;;4.78;1.40;;;;;;;16.15;70.33;101921.38;5044641;28;20044;-75
2022/07/15 00:52:43;;;;;;;8.90;1.60;;;;;;;16.14;70.55;101925.81;5042184;28;20039;-75
2022/07/15 00:55:10;;;;;;;4.65;1.30;;;;;;;16.18;70.41;101923.69;5044169;28;21313;-75
2022/07/15 00:57:39;;;;;;;4.28;1.40;;;;;;;16.19;70.10;101927.91;5061994;28;20039;-75
2022/07/15 01:00:06;;;;;;;4.80;1.30;;;;;;;16.19;70.17;101934.97;5059761;28;20032;-75
2022/07/15 01:02:33;;;;;;;2.17;1.60;;;;;;;16.15;70.47;101934.47;5026128;28;20048;-75
2022/07/15 01:05:03;;;;;;;4.15;1.52;;;;;;;16.12;70.67;101932.16;5030779;28;20071;-76
2022/07/15 01:07:29;;;;;;;5.75;1.30;;;;;;;16.07;71.06;101932.69;5060179;28;20040;-75
2022/07/15 01:09:55;;;;;;;6.60;1.83;;;;;;;16.00;71.57;101942.16;5058890;28;20035;-75
2022/07/15 01:12:20;;;;;;;6.50;1.52;;;;;;;15.95;71.95;101932.19;5058418;28;20122;-74
2022/07/15 01:14:46;;;;;;;5.90;1.52;;;;;;;15.91;72.14;101930.06;5025741;28;20158;-74
2022/07/15 01:17:12;;;;;;;4.03;1.55;;;;;;;15.89;72.39;101930.22;5041557;28;20041;-74
2022/07/15 01:19:40;;;;;;;2.65;1.35;;;;;;;15.90;72.36;101939.72;5057633;28;21516;-73
2022/07/15 01:22:07;;;;;;;4.07;1.20;;;;;;;15.92;72.32;101945.59;5044424;28;20033;-74
2022/07/15 01:24:34;;;;;;;13.50;2.05;;;;;;;15.94;72.40;101934.97;5041181;28;20032;-74
2022/07/15 01:27:32;;;;;;;4.20;1.45;;;;;;;15.93;72.60;101941.16;5056793;28;21365;-75
2022/07/15 01:29:59;;;;;;;3.38;1.73;;;;;;;15.91;72.61;101940.53;5042457;28;20028;-73
2022/07/15 01:32:28;;;;;;;6.43;2.05;;;;;;;15.91;72.88;101936.09;5042076;28;20094;-74
2022/07/15 01:34:54;;;;;;;6.40;1.77;;;;;;;15.92;73.00;101944.78;5043161;28;20032;-74
2022/07/15 01:37:22;;;;;;;5.05;1.83;;;;;;;15.93;73.15;101941.97;5025302;28;20037;-74
2022/07/15 01:39:53;;;;;;;4.30;1.53;;;;;;;15.97;72.98;101942.47;5046368;28;20108;-74
2022/07/15 01:42:18;;;;;;;5.25;1.85;;;;;;;15.98;72.64;101941.50;5025718;28;20561;-75
2022/07/15 01:44:44;;;;;;;6.72;1.75;;;;;;;15.98;72.38;101944.13;5039238;28;20040;-75
2022/07/15 01:47:10;;;;;;;5.28;1.60;;;;;;;15.93;72.27;101943.78;5044065;28;20025;-75
2022/07/15 01:49:35;;;;;;;8.20;2.65;;;;;;;15.88;72.07;101943.44;5061279;28;20039;-75
2022/07/15 01:52:10;;;;;;;8.48;2.05;;;;;;;15.80;72.44;101944.28;5059138;28;20566;-75
2022/07/15 01:54:36;;;;;;;4.55;1.50;;;;;;;15.79;72.42;101944.47;5041692;28;20028;-76
2022/07/15 01:57:03;;;;;;;10.65;2.53;;;;;;;15.81;72.54;101942.50;5028753;28;20032;-74
2022/07/15 01:59:31;;;;;;;6.75;2.25;;;;;;;15.81;72.52;101945.09;5042977;28;20051;-74
2022/07/15 02:01:58;;;;;;;4.18;2.25;;;;;;;15.74;72.58;101943.13;5028187;28;20017;-75
2022/07/15 02:04:25;;;;;;;8.27;3.60;;;;;;;15.74;72.47;101950.16;5026197;28;20037;-75
2022/07/15 02:06:51;;;;;;;10.88;2.15;;;;;;;15.73;72.67;101945.88;5037172;28;20037;-76
2022/07/15 02:09:19;;;;;;;8.68;2.10;;;;;;;15.70;72.93;101943.59;5041105;28;20047;-76
2022/07/15 02:11:47;;;;;;;5.20;1.50;;;;;;;15.66;73.11;101950.13;5024010;28;20152;-75
2022/07/15 02:14:13;;;;;;;5.38;1.70;;;;;;;15.67;73.11;101951.75;5039992;28;20037;-74
2022/07/15 02:16:40;;;;;;;7.28;1.83;;;;;;;15.67;72.76;101946.50;5042227;28;20032;-73
2022/07/15 02:19:09;;;;;;;5.28;2.35;;;;;;;15.70;72.79;101948.81;5041184;28;20032;-75
2022/07/15 02:21:36;;;;;;;6.80;1.90;;;;;;;15.72;72.34;101947.66;5029390;28;20032;-75
2022/07/15 02:24:02;;;;;;;10.10;1.95;;;;;;;15.75;71.96;101939.53;5041422;28;20029;-73
2022/07/15 02:26:27;;;;;;;3.15;1.50;;;;;;;15.78;71.48;101943.63;5040329;28;20043;-75
2022/07/15 02:28:55;;;;;;;3.88;1.55;;;;;;;15.81;70.98;101945.91;5038450;28;20029;-75
2022/07/15 02:31:22;;;;;;;5.22;1.70;;;;;;;15.82;71.32;101949.34;5037732;28;20095;-75
2022/07/15 02:33:48;;;;;;;4.57;1.77;;;;;;;15.79;71.27;101954.91;5054087;28;20814;-72
2022/07/15 02:36:14;;;;;;;7.43;1.90;;;;;;;15.73;71.70;101949.34;5040175;28;20033;-74
2022/07/15 02:38:40;;;;;;;4.70;1.50;;;;;;;15.72;71.54;101952.91;5040838;28;20032;-75
2022/07/15 02:41:08;;;;;;;7.55;1.85;;;;;;;15.73;71.34;101958.97;5042277;28;20062;-74
2022/07/15 02:43:36;;;;;;;5.18;1.98;;;;;;;15.70;71.42;101959.28;5024017;28;20696;-73
2022/07/15 02:46:02;;;;;;;6.70;1.88;;;;;;;15.58;72.10;101956.16;5044824;28;20040;-75
2022/07/15 02:48:31;;;;;;;7.68;2.00;;;;;;;15.50;72.58;101951.75;5038750;28;20595;-75
2022/07/15 02:50:57;;;;;;;5.45;1.77;;;;;;;15.49;72.41;101957.94;5047277;28;20828;-75
2022/07/15 02:53:28;;;;;;;6.38;1.90;;;;;;;15.47;72.51;101959.88;5041709;28;20039;-75
2022/07/15 02:56:00;;;;;;;4.10;2.17;;;;;;;15.43;72.62;101958.59;5055160;28;20589;-75
2022/07/15 02:58:29;;;;;;;8.65;2.45;;;;;;;15.37;72.82;101956.63;5039417;28;20033;-75
2022/07/15 03:00:54;;;;;;;7.85;2.30;;;;;;;15.28;73.27;101962.78;5055413;28;20032;-75
2022/07/15 03:03:20;;;;;;;8.30;1.98;;;;;;;15.16;73.84;101968.31;5040726;28;20032;-72
2022/07/15 03:05:46;;;;;;;7.38;2.53;;;;;;;15.04;74.44;101964.31;5039063;28;20024;-75
2022/07/15 03:08:12;;;;;;;6.45;2.50;;;;;;;14.96;75.06;101972.13;5059139;28;20565;-75
2022/07/15 03:10:39;;;;;;;6.72;2.33;;;;;;;14.86;75.16;101979.25;5040352;28;20610;-75
2022/07/15 03:13:05;;;;;;;9.98;3.03;;;;;;;14.77;75.62;101979.22;5059268;28;20041;-73
2022/07/15 03:15:31;;;;;;;5.07;2.20;;;;;;;14.73;75.90;101987.50;5042653;28;20511;-73
2022/07/15 03:17:56;;;;;;;6.28;2.00;;;;;;;14.72;75.92;101985.88;5024698;28;20032;-75
2022/07/15 03:20:24;;;;;;;6.50;2.67;;;;;;;14.70;76.07;101987.81;5043381;28;20033;-75
2022/07/15 03:22:50;;;;;;;8.18;2.25;;;;;;;14.68;76.36;101989.78;5042593;28;20035;-75
2022/07/15 03:25:16;;;;;;;6.55;2.55;;;;;;;14.67;76.20;101993.34;5040921;28;20028;-74
2022/07/15 03:27:41;;;;;;;6.72;2.80;;;;;;;14.66;76.24;101991.72;5022812;28;20064;-75
2022/07/15 03:30:10;;;;;;;8.27;2.35;;;;;;;14.66;76.09;101996.94;5038841;28;20029;-75
2022/07/15 03:32:36;;;;;;;8.90;2.78;;;;;;;14.70;75.49;101985.22;5022815;28;20519;-73
2022/07/15 03:35:02;;;;;;;8.32;2.40;;;;;;;14.71;75.30;101992.91;5026073;28;20033;-75
2022/07/15 03:37:30;;;;;;;7.57;2.40;;;;;;;14.73;75.08;101990.94;5038897;28;20094;-74
2022/07/15 03:39:56;;;;;;;6.20;2.58;;;;;;;14.75;74.75;101991.59;5037669;28;20040;-75
2022/07/15 03:42:23;;;;;;;7.25;2.38;;;;;;;14.75;74.89;102001.25;5020530;28;20043;-73
2022/07/15 03:44:48;;;;;;;5.13;2.70;;;;;;;14.67;75.33;101996.75;5057884;28;20025;-75
2022/07/15 03:47:14;;;;;;;8.25;2.63;;;;;;;14.66;75.20;102002.16;5039936;28;20048;-75
2022/07/15 03:49:39;;;;;;;7.13;3.05;;;;;;;14.62;75.61;102006.88;5020606;28;20045;-75
2022/07/15 03:52:05;;;;;;;8.77;2.47;;;;;;;14.65;75.32;102009.16;5042427;28;20625;-74
2022/07/15 03:54:33;;;;;;;6.93;2.65;;;;;;;14.60;75.32;102007.00;5040501;28;20511;-74
2022/07/15 03:57:01;;;;;;;9.35;2.70;;;;;;;14.54;75.99;102018.03;5041737;28;20037;-75
2022/07/15 03:59:27;;;;;;;6.10;2.42;;;;;;;14.50;76.14;102021.09;5024482;28;21648;-74
2022/07/15 04:01:52;;;;;;;5.53;2.55;;;;;;;14.49;76.24;102022.88;5039859;28;20047;-75
2022/07/15 04:04:18;;;;;;;4.97;2.55;;;;;;;14.47;76.41;102022.22;5042714;28;20036;-76
2022/07/15 04:06:44;;;;;;;10.40;2.40;;;;;;;14.46;76.54;102023.19;5035545;28;20036;-73
2022/07/15 04:09:10;;;;;;;9.38;2.33;;;;;;;14.47;76.54;102024.84;5021920;28;20389;-74
2022/07/15 04:11:36;;;;;;;10.27;2.80;;;;;;;14.51;76.38;102025.34;5056800;28;20053;-75
2022/07/15 04:14:01;;;;;;;6.57;2.15;;;;;;;14.50;76.49;102027.13;5057703;28;20032;-75
2022/07/15 04:16:28;;;;;;;6.28;3.20;;;;;;;14.54;76.16;102027.63;5036717;28;20050;-75
2022/07/15 04:18:56;;;;;;;5.90;2.40;;;;;;;14.59;75.69;102028.03;5042203;28;20029;-75
2022/07/15 04:21:21;;;;;;;8.73;2.55;;;;;;;14.60;75.62;102027.91;5039024;28;20075;-75
2022/07/15 04:23:47;;;;;;;8.13;2.22;;;;;;;14.65;75.62;102035.25;5039235;28;20028;-75
2022/07/15 04:26:13;;;;;;;10.43;2.33;;;;;;;14.64;76.10;102035.44;5024321;28;20075;-76
2022/07/15 04:28:38;;;;;;;8.35;2.53;;;;;;;14.62;76.68;102038.19;5038968;28;20044;-74
2022/07/15 04:31:04;;;;;;;7.60;3.05;;;;;;;14.60;76.87;102046.16;5057229;28;20031;-75
2022/07/15 04:33:40;;;;;;;8.32;2.33;;;;;;;14.60;77.20;102045.34;5027633;28;20111;-74
2022/07/15 04:36:06;;;;;;;5.80;2.70;;;;;;;14.65;77.29;102050.09;5038651;28;20089;-73
2022/07/15 04:38:31;;;;;;;5.40;2.70;;;;;;;14.67;77.13;102048.16;5022630;28;20060;-75
2022/07/15 04:40:59;;;;;;;10.32;2.85;;;;;;;14.68;77.12;102055.84;5039862;28;20056;-75
2022/07/15 04:43:24;;;;;;;8.65;2.65;;;;;;;14.75;77.22;102064.72;5028412;28;20665;-75
2022/07/15 04:45:51;;;;;;;12.98;2.97;;;;;;;14.77;76.83;102064.56;5023983;28;20059;-75
2022/07/15 04:51:03;;;;;;;7.07;2.53;;;;;;;14.87;76.69;102065.28;5036973;28;20029;-75
2022/07/15 04:53:29;;;;;;;7.85;2.28;;;;;;;14.88;76.80;102063.47;5041164;28;20044;-75
2022/07/15 04:55:55;;;;;;;7.50;2.38;;;;;;;14.89;76.66;102054.69;5025664;28;20036;-74
2022/07/15 04:58:20;;;;;;;13.30;3.08;;;;;;;14.98;76.58;102056.38;5021014;28;20025;-75
2022/07/15 05:00:47;;;;;;;4.40;2.30;;;;;;;15.04;76.32;102057.53;5020594;28;20057;-74
2022/07/15 05:03:14;;;;;;;11.18;2.55;;;;;;;15.16;76.05;102056.28;5026851;28;20025;-75
2022/07/15 05:05:39;;;;;;;13.05;3.38;;;;;;;15.20;75.58;102057.63;5037422;28;20068;-73
2022/07/15 05:08:08;;;;;;;11.15;3.13;;;;;;;15.23;75.22;102059.09;5039797;28;20036;-76
2022/07/15 05:10:37;;;;;;;8.50;2.70;;;;;;;15.21;74.81;102059.25;5040478;28;20039;-75
2022/07/15 05:13:05;;;;;;;11.02;2.90;;;;;;;15.21;74.49;102055.84;5040573;28;20043;-76
2022/07/15 05:15:31;;;;;;;4.28;1.83;;;;;;;15.25;74.43;102065.81;5030025;28;20025;-75
2022/07/15 05:18:04;;;;;;;10.65;2.35;;;;;;;15.36;74.60;102051.66;5039017;28;20033;-76
2022/07/15 05:20:29;;;;;;;8.55;3.03;;;;;;;15.41;74.32;102053.78;5045077;28;20666;-76
2022/07/15 05:22:55;;;;;;;9.27;3.38;;;;;;;15.49;73.99;102059.06;5042449;28;20090;-75
2022/07/15 05:25:22;;;;;;;8.45;2.03;;;;;;;15.59;73.68;102057.13;5025195;28;20941;-75
2022/07/15 05:27:51;;;;;;;7.45;2.38;;;;;;;15.73;72.75;102053.94;5042782;28;20497;-75
2022/07/15 05:30:17;;;;;;;10.85;3.85;;;;;;;15.77;72.17;102057.88;5044369;28;20135;-74
2022/07/15 05:32:43;;;;;;;8.93;3.08;;;;;;;15.62;72.09;102054.19;5046052;28;20184;-76
2022/07/15 05:35:15;;;;;;;8.25;2.55;;;;;;;15.58;72.27;102051.09;5056027;28;20029;-76
2022/07/15 05:37:41;;;;;;;12.90;2.88;;;;;;;15.56;72.17;102050.44;5041427;28;20060;-74
2022/07/15 05:40:10;;;;;;;8.95;3.25;;;;;;;15.57;72.73;102053.84;5045252;28;20036;-76
2022/07/15 05:42:41;;;;;;;8.93;2.58;;;;;;;15.70;72.46;102062.06;5043582;28;20041;-74
2022/07/15 05:45:08;;;;;;;10.82;2.70;;;;;;;15.95;71.66;102054.28;5029870;28;20032;-76
2022/07/15 05:47:36;;;;;;;10.52;2.90;;;;;;;16.06;71.27;102056.59;5042516;28;20033;-74
2022/07/15 05:50:03;;;;;;;8.18;3.55;;;;;;;16.22;71.27;102054.97;5041125;28;21495;-75
2022/07/15 05:52:30;;;;;;;9.95;3.00;;;;;;;16.40;70.41;102050.41;5045474;28;20044;-74
2022/07/15 05:54:58;;;;;;;14.50;3.22;;;;;;;16.68;69.64;102052.69;5041620;28;20137;-74
2022/07/15 05:57:23;;;;;;;7.22;2.85;;;;;;;16.86;68.73;102053.34;5042145;28;20047;-74
2022/07/15 05:59:49;;;;;;;10.50;3.17;;;;;;;16.96;67.89;102060.19;5028209;28;20107;-75
2022/07/15 06:02:16;;;;;;;11.00;2.20;;;;;;;17.21;67.41;102056.50;5028131;28;20033;-75
2022/07/15 06:04:42;;;;;;;7.65;2.67;;;;;;;17.39;66.43;102056.28;5041508;28;20036;-76
2022/07/15 06:07:08;;;;;;;9.20;2.58;;;;;;;17.76;65.37;102052.13;5042260;28;20032;-75
2022/07/15 06:09:34;;;;;;;6.93;2.70;;;;;;;17.96;64.32;102046.50;5041766;28;20767;-76
2022/07/15 06:11:59;;;;;;;7.90;2.03;;;;;;;18.11;63.18;102055.22;5040680;28;20041;-75
2022/07/15 06:14:25;;;;;;;11.05;3.40;;;;;;;18.31;62.49;102055.59;5044586;28;20520;-74
2022/07/15 06:16:51;;;;;;;7.50;2.20;;;;;;;18.58;62.56;102048.13;5040600;28;20425;-76
2022/07/15 06:19:16;;;;;;;10.77;2.20;;;;;;;18.84;61.66;102047.72;5047505;28;20044;-76
2022/07/15 06:21:42;;;;;;;5.45;2.10;;;;;;;19.05;59.83;102047.81;5043306;28;20032;-74
2022/07/15 06:24:07;;;;;;;7.35;2.63;;;;;;;19.25;58.68;102049.91;5027709;28;20035;-74
2022/07/15 06:26:32;;;;;;;7.63;1.65;;;;;;;19.47;58.45;102050.75;5042818;28;20039;-77
2022/07/15 06:28:58;;;;;;;6.95;1.70;;;;;;;19.35;56.33;102057.50;5039845;28;20041;-75
2022/07/15 06:31:24;;;;;;;5.60;1.85;;;;;;;19.26;57.95;102054.13;5041233;28;20477;-75
2022/07/15 06:33:50;;;;;;;7.65;2.00;;;;;;;19.52;57.73;102047.59;5044576;28;20042;-76
2022/07/15 06:36:16;;;;;;;7.68;1.45;;;;;;;19.73;56.92;102046.81;5045528;28;20037;-76
2022/07/15 06:38:44;;;;;;;8.35;2.28;;;;;;;20.12;55.83;102050.84;5043861;28;20056;-75
2022/07/15 06:41:10;;;;;;;11.68;1.85;;;;;;;20.10;54.42;102047.56;5045347;28;20441;-75
2022/07/15 06:43:36;;;;;;;8.77;1.83;;;;;;;20.06;55.38;102046.31;5059698;28;20048;-76
2022/07/15 06:46:23;;;;;;;33.33;15.85;;;;;;;20.15;54.57;102053.88;5043472;28;20032;-76
2022/07/15 06:48:49;;;;;;;10.05;3.60;;;;;;;20.33;53.67;102053.44;5042013;28;20036;-76
2022/07/15 06:51:14;;;;;;;6.10;1.67;;;;;;;20.55;54.32;102053.38;5024943;28;20029;-74
2022/07/15 06:53:40;;;;;;;4.30;1.17;;;;;;;20.91;52.75;102044.53;5042348;28;20048;-74
2022/07/15 06:56:07;;;;;;;3.15;1.30;;;;;;;21.09;51.86;102049.28;5026449;28;20119;-76
2022/07/15 06:58:32;;;;;;;6.65;1.60;;;;;;;21.31;50.81;102048.16;5045899;28;20028;-75
2022/07/15 07:00:59;;;;;;;4.57;1.42;;;;;;;21.29;50.68;102050.19;5062481;28;20039;-76
2022/07/15 07:03:25;;;;;;;5.22;1.13;;;;;;;20.66;52.64;102046.81;5042121;28;20124;-74
2022/07/15 07:05:51;;;;;;;6.13;1.30;;;;;;;20.98;51.95;102054.13;5040005;28;20037;-75
2022/07/15 07:08:16;;;;;;;7.93;1.25;;;;;;;21.42;51.21;102048.59;5046731;28;20171;-75
2022/07/15 07:10:42;;;;;;;5.22;1.27;;;;;;;21.77;50.38;102046.69;5041644;28;20048;-77
2022/07/15 07:13:09;;;;;;;5.70;1.40;;;;;;;22.44;49.09;102050.22;5046845;28;20051;-77
2022/07/15 07:15:34;;;;;;;6.22;1.20;;;;;;;22.88;47.02;102043.41;5044413;28;20028;-76
2022/07/15 07:18:00;;;;;;;7.63;1.20;;;;;;;22.91;47.04;102043.00;5047359;28;20039;-75
2022/07/15 07:20:25;;;;;;;5.00;1.40;;;;;;;23.04;45.86;102050.13;5042685;28;20033;-75
2022/07/15 07:22:50;;;;;;;4.63;1.33;;;;;;;23.21;46.21;102045.16;5058865;28;20036;-76
2022/07/15 07:25:16;;;;;;;3.55;0.95;;;;;;;23.39;46.03;102047.09;5047197;28;20027;-76
2022/07/15 07:27:41;;;;;;;5.35;1.10;;;;;;;23.83;44.58;102044.66;5042401;28;20689;-76
2022/07/15 07:30:08;;;;;;;4.78;1.20;;;;;;;24.30;44.67;102042.44;5061173;28;20036;-76
2022/07/15 07:32:33;;;;;;;5.03;1.05;;;;;;;24.29;43.94;102049.56;5045075;28;20730;-76
2022/07/15 07:34:59;;;;;;;8.32;1.38;;;;;;;24.38;42.26;102054.59;5062003;28;20501;-74
2022/07/15 07:37:26;;;;;;;7.13;1.10;;;;;;;24.48;42.30;102050.41;5056039;28;20492;-77
2022/07/15 07:39:52;;;;;;;5.28;1.10;;;;;;;24.41;41.83;102047.03;5042488;28;20115;-75
2022/07/15 07:42:19;;;;;;;2.53;0.70;;;;;;;24.60;41.79;102037.28;5059595;28;20040;-76
2022/07/15 07:44:45;;;;;;;4.88;1.35;;;;;;;24.94;41.08;102044.84;5062903;28;20038;-76
2022/07/15 07:47:11;;;;;;;4.45;1.52;;;;;;;25.17;40.60;102037.03;5058392;28;20063;-76
2022/07/15 07:49:37;;;;;;;2.75;0.77;;;;;;;25.13;40.08;102041.16;5045353;28;20036;-76
2022/07/15 07:52:03;;;;;;;5.88;1.13;;;;;;;25.13;39.60;102035.84;5043994;28;20044;-76
2022/07/15 07:54:29;;;;;;;3.13;1.63;;;;;;;25.37;39.31;102042.09;5059366;28;20044;-76
2022/07/15 07:56:55;;;;;;;4.40;1.25;;;;;;;24.73;39.72;102038.16;5060926;28;20028;-75
2022/07/15 07:59:21;;;;;;;7.38;1.00;;;;;;;24.96;40.34;102042.78;5047911;28;20047;-75
2022/07/15 08:01:46;;;;;;;3.78;0.70;;;;;;;25.29;38.87;102041.59;5042044;28;20039;-77
2022/07/15 08:04:13;;;;;;;3.80;0.82;;;;;;;25.55;38.71;102045.75;5026797;28;20025;-77
2022/07/15 08:06:40;;;;;;;5.50;1.20;;;;;;;25.68;38.18;102040.22;5059536;28;20048;-76
2022/07/15 08:09:06;;;;;;;2.28;0.80;;;;;;;24.78;39.33;102046.25;5039923;28;20040;-78
2022/07/15 08:11:31;;;;;;;4.18;1.92;;;;;;;23.62;40.88;102048.41;5044750;28;20500;-76
2022/07/15 08:13:57;;;;;;;4.25;0.63;;;;;;;23.47;41.15;102049.50;5021927;28;20112;-76
2022/07/15 08:16:22;;;;;;;6.13;1.55;;;;;;;24.41;39.48;102046.19;5042258;28;20039;-76
2022/07/15 08:18:48;;;;;;;3.28;1.33;;;;;;;24.28;39.28;102050.59;5042029;28;20058;-75
2022/07/15 08:21:14;;;;;;;5.85;1.90;;;;;;;24.84;38.77;102051.47;5060310;28;20032;-77
2022/07/15 08:23:40;;;;;;;3.22;0.90;;;;;;;24.99;37.85;102045.00;5043380;28;20072;-76
2022/07/15 08:26:07;;;;;;;4.38;0.93;;;;;;;24.27;37.46;102056.91;5040126;28;20072;-74
2022/07/15 08:28:33;;;;;;;4.03;0.88;;;;;;;24.10;35.80;102046.03;5026131;28;20147;-76
2022/07/15 08:30:59;;;;;;;4.18;0.70;;;;;;;23.40;37.39;102045.28;5040877;28;20024;-75
2022/07/15 08:33:24;;;;;;;5.38;1.25;;;;;;;23.41;38.73;102046.88;5043261;28;20040;-75
2022/07/15 08:35:50;;;;;;;18.08;1.20;;;;;;;24.60;37.94;102047.88;5041804;28;20047;-77
2022/07/15 08:38:15;;;;;;;9.50;1.88;;;;;;;25.17;37.67;102044.97;5037084;28;20029;-77
2022/07/15 08:40:42;;;;;;;3.40;0.95;;;;;;;25.70;36.77;102040.81;5048209;28;20396;-76
2022/07/15 08:43:09;;;;;;;4.32;1.08;;;;;;;24.96;36.25;102042.78;5042302;28;20082;-76
2022/07/15 08:45:37;;;;;;;3.95;0.93;;;;;;;25.30;36.75;102043.22;5028059;28;20058;-75
2022/07/15 08:48:05;;;;;;;5.90;1.83;;;;;;;25.41;36.64;102045.94;5063914;28;20040;-77
2022/07/15 08:50:31;;;;;;;2.47;0.80;;;;;;;25.49;36.46;102046.66;5042396;28;20032;-76
2022/07/15 08:52:57;;;;;;;5.03;0.80;;;;;;;25.99;36.02;102048.97;5056841;28;20122;-76
2022/07/15 08:55:23;;;;;;;4.20;0.80;;;;;;;26.50;35.43;102042.16;5045353;28;20176;-76
2022/07/15 08:57:52;;;;;;;3.97;1.15;;;;;;;25.67;37.38;102046.56;5068768;28;20052;-75
2022/07/15 09:00:23;;;;;;;1.95;0.70;;;;;;;25.06;38.52;102051.84;5044252;28;20040;-76
2022/07/15 09:02:48;;;;;;;3.88;1.10;;;;;;;24.74;37.74;102048.53;5043737;28;20777;-75
2022/07/15 09:05:34;;;;;;;5.68;1.02;;;;;;;23.79;39.08;102054.84;5064802;28;20031;-75
2022/07/15 09:08:07;;;;;;;3.53;0.60;;;;;;;23.65;40.37;102042.69;5029952;28;20075;-77
2022/07/15 09:10:53;;;;;;;4.45;1.20;;;;;;;23.38;40.09;102042.84;5060635;28;20035;-77
2022/07/15 09:13:30;;;;;;;6.72;1.02;;;;;;;23.30;40.47;102038.59;5065405;28;20031;-77
2022/07/15 09:15:57;;;;;;;2.17;0.70;;;;;;;22.92;40.12;102054.38;5043720;28;20094;-76
2022/07/15 09:18:33;;;;;;;3.33;0.93;;;;;;;23.15;39.10;102042.53;5059653;28;20029;-77
2022/07/15 09:20:59;;;;;;;2.38;0.63;;;;;;;24.05;37.66;102042.44;5042981;28;20047;-76
2022/07/15 09:23:30;;;;;;;7.15;1.33;;;;;;;24.66;36.82;102041.69;5046691;28;20083;-76
2022/07/15 09:25:59;;;;;;;3.85;0.90;;;;;;;24.93;35.08;102029.97;5039623;28;20067;-75
2022/07/15 09:28:41;;;;;;;4.78;0.80;;;;;;;25.02;35.01;102026.00;5044320;28;20036;-75
2022/07/15 09:33:59;;;;;;;5.00;0.63;;;;;;;25.28;35.25;102030.19;5061761;28;20485;-73
2022/07/15 09:36:30;;;;;;;6.45;1.13;;;;;;;25.82;34.00;102025.72;5058980;28;20072;-73
2022/07/15 09:38:59;;;;;;;5.72;1.00;;;;;;;25.59;35.03;102034.44;5061497;28;20058;-74
2022/07/15 09:41:26;;;;;;;4.13;1.00;;;;;;;25.30;34.99;102029.94;5048387;28;20032;-74
2022/07/15 09:44:13;;;;;;;2.97;0.90;;;;;;;25.27;35.77;102030.41;5063172;28;20038;-75
2022/07/15 09:46:59;;;;;;;4.22;1.55;;;;;;;24.49;37.60;102028.19;5065514;28;20048;-74
2022/07/15 09:49:25;;;;;;;3.80;0.77;;;;;;;24.06;38.36;102033.47;5060653;28;20088;-77
2022/07/15 09:51:56;;;;;;;5.13;1.13;;;;;;;23.52;38.42;102025.84;5046583;28;20160;-76
2022/07/15 09:54:23;;;;;;;7.18;1.00;;;;;;;23.13;40.08;102029.50;5049264;28;20078;-77
2022/07/15 09:56:50;;;;;;;2.25;0.50;;;;;;;23.16;40.12;102038.88;5030523;28;20040;-75
2022/07/15 09:59:17;;;;;;;2.53;0.75;;;;;;;23.62;38.27;102035.16;5066379;28;20036;-77
2022/07/15 10:01:43;;;;;;;3.60;0.90;;;;;;;23.25;38.50;102043.72;5046751;28;20408;-76
2022/07/15 10:04:10;;;;;;;3.55;0.70;;;;;;;23.41;38.52;102036.31;5046373;28;20040;-77
2022/07/15 10:06:38;;;;;;;14.07;4.22;;;;;;;23.48;38.29;102035.25;5070299;28;20539;-77
2022/07/15 10:09:05;;;;;;;6.95;1.33;;;;;;;23.42;39.24;102035.28;5062733;28;20036;-75
2022/07/15 10:11:38;;;;;;;6.57;1.13;;;;;;;23.18;36.95;102048.22;5041367;28;20033;-77
2022/07/15 10:14:34;;;;;;;2.17;0.70;;;;;;;23.10;37.31;102037.88;5059065;28;20595;-75
2022/07/15 10:17:27;;;;;;;4.30;0.70;;;;;;;23.12;37.20;102039.28;5062733;28;20043;-76
2022/07/15 10:20:17;;;;;;;1.77;0.70;;;;;;;23.46;37.23;102033.84;5040415;28;20032;-77
2022/07/15 10:23:12;;;;;;;7.70;1.27;;;;;;;23.99;37.17;102028.22;5047581;28;20047;-77
2022/07/15 10:25:51;;;;;;;3.15;0.85;;;;;;;24.17;36.40;102026.66;5043891;28;20043;-76
2022/07/15 10:28:22;;;;;;;4.28;0.90;;;;;;;24.75;36.02;102015.72;5066867;28;20448;-76
2022/07/15 10:31:28;;;;;;;8.15;1.17;;;;;;;25.02;35.73;102016.19;5044992;28;20127;-75
2022/07/15 10:34:02;;;;;;;4.78;1.00;;;;;;;24.80;36.68;102017.69;5047170;28;20096;-76
2022/07/15 10:36:47;;;;;;;5.60;1.30;;;;;;;24.39;37.18;102022.59;5041741;28;20035;-77
2022/07/15 10:39:18;;;;;;;4.22;0.95;;;;;;;24.13;37.90;102022.81;5055286;28;20600;-76
2022/07/15 10:41:46;;;;;;;4.40;1.27;;;;;;;23.95;38.22;102026.22;5047908;28;20028;-77
2022/07/15 10:44:12;;;;;;;6.57;1.05;;;;;;;23.65;38.28;102030.25;5033526;28;20035;-76
2022/07/15 10:46:37;;;;;;;5.10;0.90;;;;;;;23.08;38.73;102024.06;5048669;28;20032;-75
2022/07/15 10:49:02;;;;;;;5.18;1.00;;;;;;;23.00;39.22;102030.38;5062337;28;20036;-75
2022/07/15 10:51:37;;;;;;;6.32;1.52;;;;;;;23.73;39.25;102015.13;5041448;28;20629;-77
2022/07/15 10:54:17;;;;;;;5.10;0.80;;;;;;;23.85;38.00;102008.16;5067143;28;20041;-76
2022/07/15 10:56:45;;;;;;;4.25;1.10;;;;;;;23.99;37.36;102017.63;5039955;28;20131;-77
2022/07/15 10:59:11;;;;;;;5.40;1.20;;;;;;;23.82;37.75;102005.94;5047361;28;20130;-76
2022/07/15 11:01:38;;;;;;;11.93;0.95;;;;;;;23.61;38.01;102004.44;5046437;28;20094;-75
2022/07/15 11:04:23;;;;;;;10.27;1.45;;;;;;;23.62;38.09;102000.75;5062989;28;20031;-76
2022/07/15 11:07:07;;;;;;;4.78;0.95;;;;;;;23.71;37.76;101994.16;5061999;28;20025;-74
2022/07/15 11:09:56;;;;;;;46.83;2.08;;;;;;;23.73;38.13;101993.97;5072043;28;20040;-77
2022/07/15 11:12:21;;;;;;;3.33;1.02;;;;;;;23.81;38.23;101991.91;5060555;28;20033;-77
2022/07/15 11:14:55;;;;;;;5.00;0.95;;;;;;;24.09;37.88;101991.47;5045808;28;20085;-77
2022/07/15 11:17:24;;;;;;;3.13;0.80;;;;;;;24.58;37.11;101981.03;5066845;28;20036;-76
2022/07/15 11:19:54;;;;;;;7.97;1.20;;;;;;;24.41;36.02;101977.28;5044012;28;20774;-77
2022/07/15 11:22:22;;;;;;;2.65;0.73;;;;;;;24.47;37.15;101976.41;5063922;28;20062;-76
2022/07/15 11:24:48;;;;;;;3.60;0.98;;;;;;;24.87;36.53;101978.63;5063845;28;20028;-76
2022/07/15 11:27:14;;;;;;;1.90;0.75;;;;;;;24.94;36.47;101974.06;5040192;28;20074;-77
2022/07/15 11:30:04;;;;;;;3.83;0.93;;;;;;;25.44;35.49;101975.63;5045970;28;20053;-77
2022/07/15 11:32:31;;;;;;;3.00;0.82;;;;;;;25.58;35.05;101979.72;5041876;28;20033;-76
2022/07/15 11:34:59;;;;;;;5.72;0.82;;;;;;;25.35;34.10;101967.19;5063958;28;20040;-74